createdAt,value
2023-01-29T00:00:10.513Z,40.83
2023-01-29T00:02:38.976Z,42.42
2023-01-29T00:05:26.076Z,43.83
2023-01-29T00:07:56.028Z,41.03
2023-01-29T00:10:24.659Z,42.67
2023-01-29T00:12:53.080Z,42.85
2023-01-29T00:15:22.824Z,43.00
2023-01-29T00:17:51.268Z,46.60
2023-01-29T00:20:20.064Z,43.72
2023-01-29T00:22:48.464Z,49.53
2023-01-29T00:25:16.900Z,49.22
2023-01-29T00:27:45.393Z,45.97
2023-01-29T00:30:19.812Z,44.40
2023-01-29T00:32:49.865Z,43.25
2023-01-29T00:35:18.438Z,44.03
2023-01-29T00:37:46.870Z,42.35
2023-01-29T00:40:15.801Z,43.33
2023-01-29T00:43:03.728Z,45.17
2023-01-29T00:45:32.081Z,43.65
2023-01-29T00:48:01.960Z,42.70
2023-01-29T00:50:30.552Z,45.83
2023-01-29T00:52:58.851Z,46.95
2023-01-29T00:55:27.488Z,44.85
2023-01-29T00:57:56.184Z,44.47
2023-01-29T01:00:24.912Z,45.50
2023-01-29T01:03:07.926Z,44.67
2023-01-29T01:05:39.227Z,44.50
2023-01-29T01:08:28.991Z,43.90
2023-01-29T01:11:01.140Z,42.40
2023-01-29T01:13:29.807Z,44.08
2023-01-29T01:15:58.091Z,45.88
2023-01-29T01:18:26.653Z,44.95
2023-01-29T01:21:00.446Z,44.90
2023-01-29T01:23:28.664Z,48.50
2023-01-29T01:25:57.041Z,49.78
2023-01-29T01:28:25.769Z,44.70
2023-01-29T01:30:54.023Z,44.42
2023-01-29T01:33:22.677Z,51.35
2023-01-29T01:35:51.107Z,44.00
2023-01-29T01:38:20.800Z,46.83
2023-01-29T01:40:49.210Z,49.80
2023-01-29T01:43:17.776Z,47.83
2023-01-29T01:45:46.876Z,50.92
2023-01-29T01:48:18.936Z,52.00
2023-01-29T01:50:51.256Z,47.55
2023-01-29T01:53:25.521Z,47.13
2023-01-29T01:56:02.913Z,48.53
2023-01-29T01:58:36.240Z,50.30
2023-01-29T02:01:05.637Z,49.22
2023-01-29T02:03:54.209Z,50.17
2023-01-29T02:06:40.128Z,49.63
2023-01-29T02:09:32.002Z,48.35
2023-01-29T02:12:00.192Z,50.33
2023-01-29T02:14:28.528Z,52.58
2023-01-29T02:16:57.013Z,52.42
2023-01-29T02:19:37.823Z,54.85
2023-01-29T02:22:26.147Z,57.20
2023-01-29T02:25:21.876Z,56.33
2023-01-29T02:28:22.727Z,55.88
2023-01-29T02:30:59.840Z,57.90
2023-01-29T02:33:37.693Z,54.38
2023-01-29T02:36:15.634Z,57.65
2023-01-29T02:38:50.843Z,54.92
2023-01-29T02:41:27.839Z,55.83
2023-01-29T02:44:06.080Z,58.97
2023-01-29T02:46:39.045Z,58.17
2023-01-29T02:49:13.573Z,58.70
2023-01-29T02:51:46.001Z,57.05
2023-01-29T02:54:21.215Z,58.50
2023-01-29T02:56:55.153Z,55.85
2023-01-29T02:59:31.045Z,60.28
2023-01-29T03:02:04.357Z,59.47
2023-01-29T03:04:36.318Z,59.78
2023-01-29T03:07:10.162Z,56.58
2023-01-29T03:09:43.257Z,57.47
2023-01-29T03:12:28.475Z,63.78
2023-01-29T03:15:13.394Z,63.50
2023-01-29T03:17:46.512Z,56.53
2023-01-29T03:20:19.054Z,63.67
2023-01-29T03:22:53.574Z,62.13
2023-01-29T03:25:42.914Z,57.45
2023-01-29T03:28:31.220Z,59.53
2023-01-29T03:31:22.441Z,59.55
2023-01-29T03:33:53.707Z,62.58
2023-01-29T03:36:37.973Z,63.97
2023-01-29T03:39:07.218Z,62.67
2023-01-29T03:41:39.628Z,66.32
2023-01-29T03:44:15.283Z,62.47
2023-01-29T03:46:51.862Z,58.97
2023-01-29T03:49:28.461Z,67.25
2023-01-29T03:52:02.435Z,64.18
2023-01-29T03:54:39.391Z,63.05
2023-01-29T03:57:16.317Z,59.15
2023-01-29T03:59:54.688Z,58.33
2023-01-29T04:02:29.028Z,60.50
2023-01-29T04:05:01.049Z,58.78
2023-01-29T04:07:33.624Z,58.92
2023-01-29T04:10:06.771Z,60.95
2023-01-29T04:12:39.953Z,59.05
2023-01-29T04:15:12.526Z,59.75
2023-01-29T04:17:44.899Z,58.63
2023-01-29T04:20:14.212Z,60.90
2023-01-29T04:22:50.180Z,62.67
2023-01-29T04:25:26.668Z,59.90
2023-01-29T04:28:04.920Z,60.85
2023-01-29T04:30:43.824Z,61.30
2023-01-29T04:33:23.247Z,61.38
2023-01-29T04:36:11.808Z,62.40
2023-01-29T04:38:52.358Z,59.97
2023-01-29T04:41:26.575Z,63.78
2023-01-29T04:44:01.462Z,63.58
2023-01-29T04:46:37.075Z,62.42
2023-01-29T04:49:18.959Z,61.80
2023-01-29T04:51:53.319Z,62.83
2023-01-29T04:54:32.848Z,62.67
2023-01-29T04:57:10.482Z,60.38
2023-01-29T04:59:44.475Z,58.90
2023-01-29T05:02:14.516Z,60.45
2023-01-29T05:04:46.097Z,62.03
2023-01-29T05:07:16.363Z,57.50
2023-01-29T05:09:46.801Z,65.43
2023-01-29T05:12:17.021Z,59.47
2023-01-29T05:14:48.048Z,61.17
2023-01-29T05:17:18.880Z,57.47
2023-01-29T05:19:49.189Z,64.80
2023-01-29T05:22:22.678Z,53.75
2023-01-29T05:24:52.148Z,57.05
2023-01-29T05:27:40.956Z,59.15
2023-01-29T05:30:10.763Z,55.67
2023-01-29T05:32:39.775Z,57.20
2023-01-29T05:35:10.180Z,58.78
2023-01-29T05:37:38.722Z,55.17
2023-01-29T05:40:08.862Z,54.55
2023-01-29T05:42:37.361Z,53.65
2023-01-29T05:45:06.541Z,51.85
2023-01-29T05:47:34.876Z,57.35
2023-01-29T05:50:03.713Z,55.35
2023-01-29T05:52:33.543Z,55.75
2023-01-29T05:55:01.766Z,55.17
2023-01-29T05:57:30.159Z,53.72
2023-01-29T05:59:58.448Z,53.05
2023-01-29T06:02:26.619Z,56.35
2023-01-29T06:04:55.067Z,53.15
2023-01-29T06:07:23.518Z,54.10
2023-01-29T06:09:53.259Z,54.38
2023-01-29T06:12:21.658Z,58.50
2023-01-29T06:14:50.150Z,53.85
2023-01-29T06:17:18.421Z,56.45
2023-01-29T06:19:46.713Z,53.80
2023-01-29T06:22:15.099Z,55.30
2023-01-29T06:24:43.395Z,55.22
2023-01-29T06:27:13.017Z,57.20
2023-01-29T06:29:41.469Z,60.95
2023-01-29T06:32:09.822Z,58.05
2023-01-29T06:34:38.348Z,60.88
2023-01-29T06:37:08.157Z,56.83
2023-01-29T06:39:36.545Z,59.33
2023-01-29T06:42:05.146Z,58.03
2023-01-29T06:44:35.142Z,58.42
2023-01-29T06:47:03.328Z,58.75
2023-01-29T06:49:31.621Z,56.97
2023-01-29T06:52:00.319Z,56.85
2023-01-29T06:54:28.528Z,58.60
2023-01-29T06:56:57.085Z,55.30
2023-01-29T06:59:25.587Z,58.45
2023-01-29T07:01:55.234Z,60.40
2023-01-29T07:04:23.446Z,55.00
2023-01-29T07:06:51.920Z,59.40
2023-01-29T07:09:20.162Z,61.40
2023-01-29T07:11:48.409Z,61.70
2023-01-29T07:14:17.130Z,60.63
2023-01-29T07:16:45.324Z,62.67
2023-01-29T07:19:15.514Z,67.95
2023-01-29T07:21:43.838Z,63.90
2023-01-29T07:24:12.147Z,70.13
2023-01-29T07:26:40.375Z,68.47
2023-01-29T07:29:08.959Z,75.32
2023-01-29T07:31:37.351Z,66.20
2023-01-29T07:34:05.878Z,68.30
2023-01-29T07:36:37.298Z,68.57
2023-01-29T07:39:05.578Z,66.25
2023-01-29T07:41:33.820Z,74.95
2023-01-29T07:44:02.294Z,68.05
2023-01-29T07:46:30.490Z,64.20
2023-01-29T07:48:59.848Z,64.63
2023-01-29T07:51:28.143Z,64.57
2023-01-29T07:53:57.921Z,59.75
2023-01-29T07:56:26.165Z,63.30
2023-01-29T07:58:54.529Z,63.17
2023-01-29T08:01:22.805Z,64.88
2023-01-29T08:03:51.513Z,62.00
2023-01-29T08:06:20.129Z,61.20
2023-01-29T08:08:48.413Z,63.90
2023-01-29T08:11:18.097Z,61.42
2023-01-29T08:13:46.804Z,58.33
2023-01-29T08:16:15.398Z,57.28
2023-01-29T08:18:47.791Z,66.28
2023-01-29T08:21:16.974Z,63.35
2023-01-29T08:23:45.203Z,64.10
2023-01-29T08:26:13.617Z,63.05
2023-01-29T08:28:43.486Z,63.75
2023-01-29T08:31:15.998Z,63.17
2023-01-29T08:33:44.442Z,66.75
2023-01-29T08:36:15.262Z,62.67
2023-01-29T08:38:43.727Z,71.70
2023-01-29T08:41:12.229Z,66.47
2023-01-29T08:43:40.694Z,65.53
2023-01-29T08:46:10.413Z,66.88
2023-01-29T08:48:38.862Z,59.90
2023-01-29T08:51:07.567Z,71.80
2023-01-29T08:53:36.001Z,65.40
2023-01-29T08:56:04.499Z,61.83
2023-01-29T08:58:32.725Z,70.03
2023-01-29T09:01:09.475Z,63.30
2023-01-29T09:03:40.970Z,68.43
2023-01-29T09:06:11.062Z,91.40
2023-01-29T09:08:39.535Z,73.07
2023-01-29T09:11:08.225Z,72.38
2023-01-29T09:13:37.050Z,66.93
2023-01-29T09:16:06.218Z,63.50
2023-01-29T09:18:35.911Z,61.80
2023-01-29T09:21:04.986Z,60.70
2023-01-29T09:23:33.846Z,55.75
2023-01-29T09:26:04.420Z,57.55
2023-01-29T09:28:32.748Z,58.58
2023-01-29T09:31:02.877Z,54.28
2023-01-29T09:33:32.574Z,55.65
2023-01-29T09:36:04.285Z,52.30
2023-01-29T09:38:32.580Z,50.17
2023-01-29T09:41:09.367Z,57.67
2023-01-29T09:43:47.127Z,51.67
2023-01-29T09:46:22.368Z,48.60
2023-01-29T09:49:04.471Z,49.95
2023-01-29T09:51:40.175Z,51.70
2023-01-29T09:54:18.909Z,52.53
2023-01-29T09:56:47.838Z,51.63
2023-01-29T09:59:19.699Z,58.03
2023-01-29T10:01:56.685Z,54.67
2023-01-29T10:04:46.344Z,52.70
2023-01-29T10:07:33.240Z,53.22
2023-01-29T10:10:16.719Z,53.10
2023-01-29T10:13:02.149Z,54.05
2023-01-29T10:15:40.367Z,53.00
2023-01-29T10:18:34.371Z,60.17
2023-01-29T10:21:12.918Z,57.20
2023-01-29T10:23:48.113Z,69.03
2023-01-29T10:26:16.357Z,62.33
2023-01-29T10:28:47.644Z,79.97
2023-01-29T10:31:22.110Z,54.58
2023-01-29T10:34:01.909Z,54.83
2023-01-29T10:36:37.536Z,57.03
2023-01-29T10:39:07.297Z,59.30
2023-01-29T10:41:59.216Z,59.53
2023-01-29T10:44:37.907Z,60.08
2023-01-29T10:47:22.568Z,58.40
2023-01-29T10:50:13.065Z,59.25
2023-01-29T10:53:10.682Z,58.40
2023-01-29T10:55:52.332Z,58.88
2023-01-29T10:58:31.463Z,57.45
2023-01-29T11:01:00.298Z,60.38
2023-01-29T11:03:30.846Z,56.75
2023-01-29T11:06:06.719Z,58.67
2023-01-29T11:08:41.284Z,60.53
2023-01-29T11:11:14.960Z,61.35
2023-01-29T11:16:12.859Z,56.53
2023-01-29T11:18:55.628Z,57.63
2023-01-29T11:21:25.092Z,56.38
2023-01-29T11:24:07.669Z,54.15
2023-01-29T11:26:41.503Z,51.25
2023-01-29T11:29:33.311Z,52.92
2023-01-29T11:32:03.616Z,55.25
2023-01-29T11:34:32.339Z,56.20
2023-01-29T11:37:02.183Z,53.78
2023-01-29T11:39:31.574Z,50.17
2023-01-29T11:42:03.885Z,50.47
2023-01-29T11:44:34.213Z,43.67
2023-01-29T11:47:13.646Z,45.55
2023-01-29T11:49:47.964Z,45.58
2023-01-29T11:52:19.710Z,47.45
2023-01-29T11:54:52.020Z,43.15
2023-01-29T11:57:31.677Z,39.72
2023-01-29T12:00:03.560Z,40.22
2023-01-29T12:02:36.307Z,38.72
2023-01-29T12:05:08.214Z,40.30
2023-01-29T12:07:42.425Z,38.83
2023-01-29T12:10:32.483Z,36.60
2023-01-29T12:13:17.116Z,40.92
2023-01-29T12:15:45.761Z,38.85
2023-01-29T12:18:20.445Z,40.67
2023-01-29T12:20:54.602Z,37.72
2023-01-29T12:23:29.843Z,38.25
2023-01-29T12:26:03.695Z,73.63
2023-01-29T12:28:43.898Z,73.30
2023-01-29T12:31:27.975Z,37.95
2023-01-29T12:34:02.992Z,40.35
2023-01-29T12:36:37.909Z,41.80
2023-01-29T12:39:06.610Z,41.42
2023-01-29T12:41:41.199Z,42.22
2023-01-29T12:44:17.456Z,44.25
2023-01-29T12:46:50.500Z,42.97
2023-01-29T12:49:23.999Z,41.65
2023-01-29T12:51:59.133Z,40.40
2023-01-29T12:54:36.716Z,41.83
2023-01-29T12:57:10.415Z,42.42
2023-01-29T13:02:29.066Z,44.33
2023-01-29T13:05:00.988Z,42.35
2023-01-29T13:07:33.528Z,44.25
2023-01-29T13:10:08.784Z,42.25
2023-01-29T13:12:39.784Z,41.45
2023-01-29T13:15:22.491Z,41.75
2023-01-29T13:17:54.496Z,40.80
2023-01-29T13:20:29.990Z,42.13
2023-01-29T13:23:04.717Z,43.75
2023-01-29T13:25:33.179Z,41.65
2023-01-29T13:28:02.128Z,43.30
2023-01-29T13:30:33.549Z,42.60
2023-01-29T13:33:11.788Z,41.53
2023-01-29T13:35:43.632Z,38.55
2023-01-29T13:38:26.576Z,43.80
2023-01-29T13:41:00.473Z,43.47
2023-01-29T13:43:31.621Z,41.65
2023-01-29T13:46:09.509Z,46.85
2023-01-29T13:48:43.966Z,44.25
2023-01-29T13:51:19.596Z,40.75
2023-01-29T13:53:56.268Z,40.42
2023-01-29T13:56:52.820Z,43.45
2023-01-29T13:59:25.930Z,41.72
2023-01-29T14:02:26.204Z,42.15
2023-01-29T14:05:34.521Z,39.45
2023-01-29T14:08:03.611Z,41.65
2023-01-29T14:10:33.188Z,43.72
2023-01-29T14:13:29.275Z,42.60
2023-01-29T14:16:44.907Z,42.85
2023-01-29T14:19:20.693Z,40.92
2023-01-29T14:21:51.665Z,45.55
2023-01-29T14:24:22.663Z,39.60
2023-01-29T14:26:56.092Z,41.22
2023-01-29T14:29:34.625Z,44.40
2023-01-29T14:32:15.001Z,42.47
2023-01-29T14:34:49.153Z,42.67
2023-01-29T14:37:27.479Z,43.58
2023-01-29T14:39:59.578Z,48.00
2023-01-29T14:42:31.095Z,41.38
2023-01-29T14:45:02.444Z,44.92
2023-01-29T14:48:10.321Z,43.08
2023-01-29T14:51:07.544Z,41.10
2023-01-29T14:53:58.248Z,46.13
2023-01-29T14:56:34.023Z,40.70
2023-01-29T14:59:14.170Z,40.42
2023-01-29T15:01:49.392Z,38.58
2023-01-29T15:04:22.270Z,40.95
2023-01-29T15:06:57.068Z,39.75
2023-01-29T15:09:36.881Z,42.38
2023-01-29T15:12:14.960Z,39.08
2023-01-29T15:14:49.349Z,40.97
2023-01-29T15:17:27.025Z,41.88
2023-01-29T15:19:56.775Z,38.53
2023-01-29T15:22:29.380Z,43.95
2023-01-29T15:25:07.338Z,44.08
2023-01-29T15:27:35.969Z,40.65
2023-01-29T15:30:08.162Z,43.17
2023-01-29T15:32:38.837Z,39.80
2023-01-29T15:35:10.722Z,40.58
2023-01-29T15:37:41.572Z,50.70
2023-01-29T15:40:17.837Z,45.70
2023-01-29T15:42:48.795Z,40.50
2023-01-29T15:45:31.171Z,43.85
2023-01-29T15:48:05.647Z,45.42
2023-01-29T15:50:36.772Z,42.70
2023-01-29T15:53:11.464Z,47.38
2023-01-29T15:55:41.153Z,42.90
2023-01-29T15:58:16.623Z,47.05
2023-01-29T16:00:51.051Z,45.92
2023-01-29T16:03:23.560Z,45.03
2023-01-29T16:05:53.053Z,44.25
2023-01-29T16:08:25.019Z,43.70
2023-01-29T16:10:56.524Z,43.75
2023-01-29T16:13:27.668Z,46.10
2023-01-29T16:15:57.817Z,46.22
2023-01-29T16:18:31.298Z,45.88
2023-01-29T16:21:00.891Z,46.22
2023-01-29T16:23:33.663Z,46.95
2023-01-29T16:26:06.416Z,45.30
2023-01-29T16:28:35.598Z,45.97
2023-01-29T16:31:04.573Z,44.20
2023-01-29T16:33:37.849Z,42.22
2023-01-29T16:36:14.646Z,44.90
2023-01-29T16:38:50.351Z,46.83
2023-01-29T16:41:32.104Z,48.20
2023-01-29T16:44:03.259Z,47.72
2023-01-29T16:46:37.002Z,43.83
2023-01-29T16:49:45.908Z,46.97
2023-01-29T16:52:21.662Z,46.90
2023-01-29T16:54:51.671Z,48.05
2023-01-29T16:57:23.217Z,51.65
2023-01-29T16:59:55.841Z,48.60
2023-01-29T17:02:28.130Z,49.25
2023-01-29T17:05:01.505Z,50.58
2023-01-29T17:07:30.630Z,51.28
2023-01-29T17:10:03.205Z,49.13
2023-01-29T17:12:33.128Z,49.55
2023-01-29T17:15:06.374Z,50.65
2023-01-29T17:17:36.199Z,47.20
2023-01-29T17:20:15.323Z,49.08
2023-01-29T17:22:44.725Z,44.28
2023-01-29T17:25:17.261Z,48.85
2023-01-29T17:27:51.631Z,46.83
2023-01-29T17:30:22.588Z,50.88
2023-01-29T17:32:50.918Z,51.60
2023-01-29T17:35:19.436Z,49.97
2023-01-29T17:37:48.323Z,48.80
2023-01-29T17:40:30.929Z,50.92
2023-01-29T17:42:59.530Z,50.65
2023-01-29T17:45:27.818Z,51.88
2023-01-29T17:47:56.195Z,49.45
2023-01-29T17:50:27.100Z,50.13
2023-01-29T17:52:55.590Z,53.67
2023-01-29T17:55:25.456Z,49.03
2023-01-29T17:57:53.864Z,47.38
2023-01-29T18:00:23.796Z,53.53
2023-01-29T18:02:52.206Z,48.67
2023-01-29T18:05:20.831Z,50.35
2023-01-29T18:07:51.767Z,51.08
2023-01-29T18:10:21.492Z,50.15
2023-01-29T18:12:51.139Z,47.75
2023-01-29T18:15:19.864Z,51.85
2023-01-29T18:17:49.098Z,50.00
2023-01-29T18:20:21.869Z,47.05
2023-01-29T18:22:50.613Z,47.30
2023-01-29T18:25:19.412Z,50.30
2023-01-29T18:27:48.157Z,47.67
2023-01-29T18:30:18.670Z,49.83
2023-01-29T18:32:47.624Z,51.40
2023-01-29T18:35:16.597Z,54.70
2023-01-29T18:37:45.123Z,53.42
2023-01-29T18:40:17.268Z,51.38
2023-01-29T18:42:46.229Z,53.00
2023-01-29T18:45:15.601Z,48.50
2023-01-29T18:47:46.160Z,50.45
2023-01-29T18:50:14.454Z,51.38
2023-01-29T18:52:42.708Z,52.78
2023-01-29T18:55:11.531Z,49.03
2023-01-29T18:58:27.893Z,52.05
2023-01-29T19:00:29.017Z,55.35
2023-01-29T19:02:58.715Z,56.85
2023-01-29T19:05:27.261Z,52.38
2023-01-29T19:07:56.020Z,58.42
2023-01-29T19:10:24.225Z,51.28
2023-01-29T19:12:52.520Z,53.30
2023-01-29T19:15:22.982Z,54.28
2023-01-29T19:17:52.149Z,48.75
2023-01-29T19:20:22.035Z,53.85
2023-01-29T19:22:50.379Z,54.35
2023-01-29T19:25:19.683Z,55.88
2023-01-29T19:27:48.228Z,53.42
2023-01-29T19:30:17.317Z,56.83
2023-01-29T19:32:45.761Z,58.45
2023-01-29T19:35:14.095Z,54.15
2023-01-29T19:37:45.597Z,55.05
2023-01-29T19:40:14.851Z,56.58
2023-01-29T19:42:43.773Z,54.08
2023-01-29T19:45:12.292Z,54.13
2023-01-29T19:47:41.626Z,49.88
2023-01-29T19:50:11.561Z,51.50
2023-01-29T19:52:55.339Z,55.03
2023-01-29T19:55:25.067Z,55.90
2023-01-29T19:57:54.393Z,53.67
2023-01-29T20:00:23.322Z,58.13
2023-01-29T20:02:52.234Z,52.65
2023-01-29T20:05:20.767Z,56.58
2023-01-29T20:07:50.024Z,62.08
2023-01-29T20:10:18.839Z,59.92
2023-01-29T20:12:48.854Z,58.55
2023-01-29T20:15:17.522Z,57.78
2023-01-29T20:17:46.155Z,57.80
2023-01-29T20:20:15.157Z,54.13
2023-01-29T20:22:43.540Z,57.03
2023-01-29T20:25:13.665Z,57.35
2023-01-29T20:27:42.531Z,57.15
2023-01-29T20:30:13.857Z,56.95
2023-01-29T20:32:42.139Z,62.80
2023-01-29T20:35:11.225Z,59.50
2023-01-29T20:37:39.683Z,57.92
2023-01-29T20:40:08.853Z,55.85
2023-01-29T20:42:37.237Z,59.00
2023-01-29T20:45:06.417Z,56.25
2023-01-29T20:47:36.095Z,61.85
2023-01-29T20:50:08.730Z,57.03
2023-01-29T20:52:37.297Z,55.83
2023-01-29T20:55:07.291Z,59.65
2023-01-29T20:57:36.302Z,55.53
2023-01-29T21:00:05.513Z,59.58
2023-01-29T21:02:35.318Z,56.63
2023-01-29T21:05:03.877Z,57.58
2023-01-29T21:07:32.365Z,64.30
2023-01-29T21:10:00.712Z,57.53
2023-01-29T21:12:29.074Z,59.35
2023-01-29T21:14:57.418Z,60.67
2023-01-29T21:17:28.085Z,55.63
2023-01-29T21:19:58.208Z,59.90
2023-01-29T21:22:26.600Z,60.25
2023-01-29T21:24:54.822Z,59.08
2023-01-29T21:27:23.254Z,62.72
2023-01-29T21:29:51.588Z,59.38
2023-01-29T21:32:19.896Z,63.13
2023-01-29T21:34:48.795Z,59.75
2023-01-29T21:37:18.989Z,58.63
2023-01-29T21:39:47.370Z,62.22
2023-01-29T21:42:33.018Z,58.05
2023-01-29T21:45:01.350Z,64.50
2023-01-29T21:47:29.680Z,58.78
2023-01-29T21:49:58.050Z,58.53
2023-01-29T21:52:27.661Z,62.67
2023-01-29T21:54:56.092Z,60.50
2023-01-29T21:57:26.683Z,63.13
2023-01-29T21:59:55.399Z,60.63
2023-01-29T22:02:26.545Z,60.30
2023-01-29T22:05:08.718Z,63.55
2023-01-29T22:07:47.187Z,61.03
2023-01-29T22:10:16.528Z,65.35
2023-01-29T22:12:45.665Z,62.15
2023-01-29T22:15:14.915Z,62.38
2023-01-29T22:17:44.804Z,64.22
2023-01-29T22:20:15.695Z,63.92
2023-01-29T22:22:44.504Z,61.38
2023-01-29T22:25:20.141Z,61.03
2023-01-29T22:27:48.569Z,63.38
2023-01-29T22:30:17.353Z,60.45
2023-01-29T22:32:46.134Z,59.88
2023-01-29T22:35:14.531Z,63.75
2023-01-29T22:37:42.883Z,63.55
2023-01-29T22:40:14.301Z,63.72
2023-01-29T22:42:42.776Z,61.97
2023-01-29T22:45:12.138Z,63.47
2023-01-29T22:47:40.792Z,67.00
2023-01-29T22:50:10.198Z,70.03
2023-01-29T22:52:43.668Z,69.22
2023-01-29T22:55:14.218Z,71.93
2023-01-29T22:57:42.708Z,72.25
2023-01-29T23:00:12.711Z,69.25
2023-01-29T23:02:41.071Z,76.78
2023-01-29T23:05:09.899Z,71.93
2023-01-29T23:07:38.660Z,68.38
2023-01-29T23:10:07.830Z,73.97
2023-01-29T23:12:37.803Z,72.38
2023-01-29T23:15:08.003Z,73.45
2023-01-29T23:17:37.026Z,69.20
2023-01-29T23:20:05.838Z,73.50
2023-01-29T23:22:34.188Z,70.45
2023-01-29T23:25:02.984Z,75.28
2023-01-29T23:27:30.228Z,75.38
2023-01-29T23:30:00.183Z,68.47
2023-01-29T23:32:28.585Z,71.57
2023-01-29T23:34:56.817Z,72.78
2023-01-29T23:37:25.477Z,70.20
2023-01-29T23:39:54.155Z,66.35
2023-01-29T23:42:22.562Z,70.43
2023-01-29T23:44:51.045Z,70.78
2023-01-29T23:47:20.959Z,64.07
2023-01-29T23:49:49.159Z,70.60
2023-01-29T23:52:17.442Z,66.93
2023-01-29T23:54:45.875Z,67.00
2023-01-29T23:57:14.032Z,64.65
2023-01-29T23:59:42.767Z,65.78
